sensor_id;sensor_type;location;lat;lon;timestamp;P1;durP1;ratioP1;P2;durP2;ratioP2
47519;SDS011;33252;48.122;11.538;2023-12-29T00:02:04;2.33;;;0.80;;
47519;SDS011;33252;48.122;11.538;2023-12-29T00:04:30;3.58;;;0.73;;
47519;SDS011;33252;48.122;11.538;2023-12-29T00:06:56;3.33;;;0.98;;
47519;SDS011;33252;48.122;11.538;2023-12-29T00:09:21;0.70;;;0.40;;
47519;SDS011;33252;48.122;11.538;2023-12-29T00:11:47;2.35;;;0.90;;
47519;SDS011;33252;48.122;11.538;2023-12-29T00:14:14;1.30;;;0.63;;
47519;SDS011;33252;48.122;11.538;2023-12-29T00:16:40;1.42;;;0.70;;
47519;SDS011;33252;48.122;11.538;2023-12-29T00:19:06;1.10;;;0.40;;
47519;SDS011;33252;48.122;11.538;2023-12-29T00:21:31;1.30;;;0.50;;
47519;SDS011;33252;48.122;11.538;2023-12-29T00:23:57;0.88;;;0.45;;
47519;SDS011;33252;48.122;11.538;2023-12-29T00:26:23;1.88;;;0.82;;
47519;SDS011;33252;48.122;11.538;2023-12-29T00:28:48;1.38;;;0.90;;
47519;SDS011;33252;48.122;11.538;2023-12-29T00:31:14;2.00;;;0.63;;
47519;SDS011;33252;48.122;11.538;2023-12-29T00:33:41;1.20;;;0.77;;
47519;SDS011;33252;48.122;11.538;2023-12-29T00:36:07;2.10;;;1.00;;
47519;SDS011;33252;48.122;11.538;2023-12-29T00:38:33;1.95;;;0.80;;
47519;SDS011;33252;48.122;11.538;2023-12-29T00:40:59;2.15;;;1.00;;
47519;SDS011;33252;48.122;11.538;2023-12-29T00:43:24;1.88;;;0.90;;
47519;SDS011;33252;48.122;11.538;2023-12-29T00:45:50;4.28;;;1.08;;
47519;SDS011;33252;48.122;11.538;2023-12-29T00:48:16;1.67;;;0.70;;
47519;SDS011;33252;48.122;11.538;2023-12-29T00:50:41;3.20;;;1.15;;
47519;SDS011;33252;48.122;11.538;2023-12-29T00:53:07;1.70;;;0.90;;
47519;SDS011;33252;48.122;11.538;2023-12-29T00:55:33;2.13;;;0.80;;
47519;SDS011;33252;48.122;11.538;2023-12-29T00:57:58;1.90;;;0.80;;
47519;SDS011;33252;48.122;11.538;2023-12-29T01:00:24;1.45;;;0.85;;
47519;SDS011;33252;48.122;11.538;2023-12-29T01:02:49;2.13;;;0.75;;
47519;SDS011;33252;48.122;11.538;2023-12-29T01:05:15;1.88;;;0.82;;
47519;SDS011;33252;48.122;11.538;2023-12-29T01:07:42;1.67;;;0.90;;
47519;SDS011;33252;48.122;11.538;2023-12-29T01:10:08;3.67;;;1.02;;
47519;SDS011;33252;48.122;11.538;2023-12-29T01:12:33;3.55;;;1.20;;
47519;SDS011;33252;48.122;11.538;2023-12-29T01:14:59;7.07;;;1.15;;
47519;SDS011;33252;48.122;11.538;2023-12-29T01:17:24;1.63;;;0.77;;
47519;SDS011;33252;48.122;11.538;2023-12-29T01:19:52;3.50;;;0.98;;
47519;SDS011;33252;48.122;11.538;2023-12-29T01:22:18;4.05;;;1.25;;
47519;SDS011;33252;48.122;11.538;2023-12-29T01:24:43;2.05;;;1.00;;
47519;SDS011;33252;48.122;11.538;2023-12-29T01:27:09;2.47;;;1.30;;
47519;SDS011;33252;48.122;11.538;2023-12-29T01:29:34;2.15;;;1.00;;
47519;SDS011;33252;48.122;11.538;2023-12-29T01:32:00;2.45;;;1.05;;
47519;SDS011;33252;48.122;11.538;2023-12-29T01:34:26;2.67;;;1.38;;
47519;SDS011;33252;48.122;11.538;2023-12-29T01:36:57;3.03;;;1.10;;
47519;SDS011;33252;48.122;11.538;2023-12-29T01:39:23;3.47;;;1.48;;
47519;SDS011;33252;48.122;11.538;2023-12-29T01:41:48;3.15;;;1.50;;
47519;SDS011;33252;48.122;11.538;2023-12-29T01:46:42;2.92;;;1.50;;
47519;SDS011;33252;48.122;11.538;2023-12-29T01:49:08;2.72;;;1.65;;
47519;SDS011;33252;48.122;11.538;2023-12-29T01:51:33;4.43;;;1.52;;
47519;SDS011;33252;48.122;11.538;2023-12-29T01:53:59;5.68;;;1.52;;
47519;SDS011;33252;48.122;11.538;2023-12-29T01:56:25;3.40;;;1.80;;
47519;SDS011;33252;48.122;11.538;2023-12-29T01:58:51;4.13;;;1.83;;
47519;SDS011;33252;48.122;11.538;2023-12-29T02:01:17;3.08;;;1.80;;
47519;SDS011;33252;48.122;11.538;2023-12-29T02:03:43;3.40;;;1.73;;
47519;SDS011;33252;48.122;11.538;2023-12-29T02:06:10;4.22;;;1.80;;
47519;SDS011;33252;48.122;11.538;2023-12-29T02:08:36;2.60;;;1.33;;
47519;SDS011;33252;48.122;11.538;2023-12-29T02:11:02;3.80;;;1.98;;
47519;SDS011;33252;48.122;11.538;2023-12-29T02:13:29;1.88;;;1.20;;
47519;SDS011;33252;48.122;11.538;2023-12-29T02:15:54;3.15;;;1.77;;
47519;SDS011;33252;48.122;11.538;2023-12-29T02:18:25;3.78;;;1.40;;
47519;SDS011;33252;48.122;11.538;2023-12-29T02:20:53;7.10;;;1.85;;
47519;SDS011;33252;48.122;11.538;2023-12-29T02:23:18;1.83;;;1.10;;
47519;SDS011;33252;48.122;11.538;2023-12-29T02:25:44;2.15;;;1.10;;
47519;SDS011;33252;48.122;11.538;2023-12-29T02:35:44;1.88;;;1.08;;
47519;SDS011;33252;48.122;11.538;2023-12-29T02:38:11;4.38;;;0.80;;
47519;SDS011;33252;48.122;11.538;2023-12-29T02:40:37;1.20;;;0.70;;
47519;SDS011;33252;48.122;11.538;2023-12-29T02:43:03;1.70;;;1.20;;
47519;SDS011;33252;48.122;11.538;2023-12-29T02:45:29;2.65;;;1.10;;
47519;SDS011;33252;48.122;11.538;2023-12-29T02:47:54;1.55;;;1.23;;
47519;SDS011;33252;48.122;11.538;2023-12-29T02:50:20;0.95;;;0.70;;
47519;SDS011;33252;48.122;11.538;2023-12-29T02:52:45;2.88;;;0.85;;
47519;SDS011;33252;48.122;11.538;2023-12-29T02:55:11;2.83;;;0.82;;
47519;SDS011;33252;48.122;11.538;2023-12-29T02:57:37;5.55;;;1.20;;
47519;SDS011;33252;48.122;11.538;2023-12-29T03:00:04;1.85;;;1.00;;
47519;SDS011;33252;48.122;11.538;2023-12-29T03:02:30;1.67;;;1.08;;
47519;SDS011;33252;48.122;11.538;2023-12-29T03:04:56;2.05;;;1.20;;
47519;SDS011;33252;48.122;11.538;2023-12-29T03:07:21;2.08;;;1.02;;
47519;SDS011;33252;48.122;11.538;2023-12-29T03:09:47;3.15;;;1.25;;
47519;SDS011;33252;48.122;11.538;2023-12-29T03:12:12;3.08;;;1.20;;
47519;SDS011;33252;48.122;11.538;2023-12-29T03:14:38;1.48;;;0.85;;
47519;SDS011;33252;48.122;11.538;2023-12-29T03:17:03;2.10;;;1.23;;
47519;SDS011;33252;48.122;11.538;2023-12-29T03:19:29;1.88;;;1.23;;
47519;SDS011;33252;48.122;11.538;2023-12-29T03:21:54;2.33;;;1.02;;
47519;SDS011;33252;48.122;11.538;2023-12-29T03:24:20;1.90;;;0.90;;
47519;SDS011;33252;48.122;11.538;2023-12-29T03:26:46;4.40;;;1.10;;
47519;SDS011;33252;48.122;11.538;2023-12-29T03:29:11;2.55;;;0.77;;
47519;SDS011;33252;48.122;11.538;2023-12-29T03:31:37;1.90;;;0.50;;
47519;SDS011;33252;48.122;11.538;2023-12-29T03:34:02;1.55;;;0.82;;
47519;SDS011;33252;48.122;11.538;2023-12-29T03:36:28;2.28;;;1.02;;
47519;SDS011;33252;48.122;11.538;2023-12-29T03:38:53;4.15;;;1.20;;
47519;SDS011;33252;48.122;11.538;2023-12-29T03:41:19;1.70;;;0.70;;
47519;SDS011;33252;48.122;11.538;2023-12-29T03:43:44;1.85;;;0.90;;
47519;SDS011;33252;48.122;11.538;2023-12-29T03:46:19;2.08;;;1.48;;
47519;SDS011;33252;48.122;11.538;2023-12-29T03:48:46;1.20;;;1.00;;
47519;SDS011;33252;48.122;11.538;2023-12-29T03:51:12;2.20;;;0.82;;
47519;SDS011;33252;48.122;11.538;2023-12-29T03:53:38;1.85;;;0.70;;
47519;SDS011;33252;48.122;11.538;2023-12-29T03:56:06;2.55;;;0.88;;
47519;SDS011;33252;48.122;11.538;2023-12-29T03:58:33;2.55;;;0.75;;
47519;SDS011;33252;48.122;11.538;2023-12-29T04:00:59;0.93;;;0.80;;
47519;SDS011;33252;48.122;11.538;2023-12-29T04:03:24;1.17;;;0.73;;
47519;SDS011;33252;48.122;11.538;2023-12-29T04:05:50;1.38;;;0.80;;
47519;SDS011;33252;48.122;11.538;2023-12-29T04:08:15;2.53;;;0.90;;
47519;SDS011;33252;48.122;11.538;2023-12-29T04:10:41;1.33;;;0.77;;
47519;SDS011;33252;48.122;11.538;2023-12-29T04:13:06;2.13;;;0.85;;
47519;SDS011;33252;48.122;11.538;2023-12-29T04:15:32;2.67;;;0.90;;
47519;SDS011;33252;48.122;11.538;2023-12-29T04:17:57;1.92;;;0.60;;
47519;SDS011;33252;48.122;11.538;2023-12-29T04:20:23;1.58;;;0.80;;
47519;SDS011;33252;48.122;11.538;2023-12-29T04:22:49;1.77;;;0.82;;
47519;SDS011;33252;48.122;11.538;2023-12-29T04:25:15;1.05;;;0.60;;
47519;SDS011;33252;48.122;11.538;2023-12-29T04:27:40;2.47;;;0.93;;
47519;SDS011;33252;48.122;11.538;2023-12-29T04:30:06;0.93;;;0.60;;
47519;SDS011;33252;48.122;11.538;2023-12-29T04:32:32;1.30;;;0.70;;
47519;SDS011;33252;48.122;11.538;2023-12-29T04:34:58;1.67;;;0.88;;
47519;SDS011;33252;48.122;11.538;2023-12-29T04:37:23;1.83;;;0.80;;
47519;SDS011;33252;48.122;11.538;2023-12-29T04:39:49;0.95;;;0.60;;
47519;SDS011;33252;48.122;11.538;2023-12-29T04:42:14;2.67;;;0.80;;
47519;SDS011;33252;48.122;11.538;2023-12-29T04:44:40;2.13;;;0.80;;
47519;SDS011;33252;48.122;11.538;2023-12-29T04:47:06;1.85;;;0.98;;
47519;SDS011;33252;48.122;11.538;2023-12-29T04:49:31;1.20;;;0.60;;
47519;SDS011;33252;48.122;11.538;2023-12-29T04:51:57;1.58;;;0.68;;
47519;SDS011;33252;48.122;11.538;2023-12-29T04:54:23;1.15;;;0.90;;
47519;SDS011;33252;48.122;11.538;2023-12-29T04:56:49;2.05;;;0.80;;
47519;SDS011;33252;48.122;11.538;2023-12-29T04:59:15;1.08;;;0.75;;
47519;SDS011;33252;48.122;11.538;2023-12-29T05:01:41;1.77;;;0.82;;
47519;SDS011;33252;48.122;11.538;2023-12-29T05:04:06;1.92;;;0.98;;
47519;SDS011;33252;48.122;11.538;2023-12-29T05:06:32;2.45;;;1.08;;
47519;SDS011;33252;48.122;11.538;2023-12-29T05:08:57;2.58;;;0.82;;
47519;SDS011;33252;48.122;11.538;2023-12-29T05:11:23;1.35;;;0.77;;
47519;SDS011;33252;48.122;11.538;2023-12-29T05:13:49;1.67;;;0.68;;
47519;SDS011;33252;48.122;11.538;2023-12-29T05:16:14;2.92;;;0.73;;
47519;SDS011;33252;48.122;11.538;2023-12-29T05:18:40;3.05;;;1.40;;
47519;SDS011;33252;48.122;11.538;2023-12-29T05:21:06;2.75;;;1.20;;
47519;SDS011;33252;48.122;11.538;2023-12-29T05:23:43;1.85;;;1.02;;
47519;SDS011;33252;48.122;11.538;2023-12-29T05:26:10;2.40;;;1.08;;
47519;SDS011;33252;48.122;11.538;2023-12-29T05:28:36;1.92;;;1.15;;
47519;SDS011;33252;48.122;11.538;2023-12-29T05:31:01;1.67;;;0.88;;
47519;SDS011;33252;48.122;11.538;2023-12-29T05:33:29;1.95;;;0.95;;
47519;SDS011;33252;48.122;11.538;2023-12-29T05:35:55;3.10;;;1.08;;
47519;SDS011;33252;48.122;11.538;2023-12-29T05:38:21;2.80;;;1.25;;
47519;SDS011;33252;48.122;11.538;2023-12-29T05:40:46;2.13;;;0.98;;
47519;SDS011;33252;48.122;11.538;2023-12-29T05:43:12;2.53;;;1.05;;
47519;SDS011;33252;48.122;11.538;2023-12-29T05:45:37;3.05;;;0.85;;
47519;SDS011;33252;48.122;11.538;2023-12-29T05:48:03;2.28;;;0.80;;
47519;SDS011;33252;48.122;11.538;2023-12-29T05:50:29;2.53;;;1.20;;
47519;SDS011;33252;48.122;11.538;2023-12-29T05:52:54;1.42;;;0.98;;
47519;SDS011;33252;48.122;11.538;2023-12-29T05:55:20;2.38;;;1.15;;
47519;SDS011;33252;48.122;11.538;2023-12-29T05:57:45;3.42;;;1.08;;
47519;SDS011;33252;48.122;11.538;2023-12-29T06:00:11;1.35;;;1.00;;
47519;SDS011;33252;48.122;11.538;2023-12-29T06:02:39;2.58;;;1.00;;
47519;SDS011;33252;48.122;11.538;2023-12-29T06:05:11;2.78;;;0.90;;
47519;SDS011;33252;48.122;11.538;2023-12-29T06:07:39;2.35;;;1.10;;
47519;SDS011;33252;48.122;11.538;2023-12-29T06:10:05;1.40;;;0.93;;
47519;SDS011;33252;48.122;11.538;2023-12-29T06:12:31;1.63;;;1.10;;
47519;SDS011;33252;48.122;11.538;2023-12-29T06:14:56;3.78;;;1.00;;
47519;SDS011;33252;48.122;11.538;2023-12-29T06:17:22;1.45;;;0.70;;
47519;SDS011;33252;48.122;11.538;2023-12-29T06:19:47;1.45;;;1.00;;
47519;SDS011;33252;48.122;11.538;2023-12-29T06:22:13;2.25;;;1.60;;
47519;SDS011;33252;48.122;11.538;2023-12-29T06:24:39;2.13;;;1.20;;
47519;SDS011;33252;48.122;11.538;2023-12-29T06:27:08;2.05;;;0.95;;
47519;SDS011;33252;48.122;11.538;2023-12-29T06:29:34;3.40;;;1.85;;
47519;SDS011;33252;48.122;11.538;2023-12-29T06:32:00;1.88;;;1.13;;
47519;SDS011;33252;48.122;11.538;2023-12-29T06:34:25;2.97;;;0.82;;
47519;SDS011;33252;48.122;11.538;2023-12-29T06:36:51;4.57;;;1.20;;
47519;SDS011;33252;48.122;11.538;2023-12-29T06:39:17;3.40;;;1.10;;
47519;SDS011;33252;48.122;11.538;2023-12-29T06:41:42;1.73;;;0.88;;
47519;SDS011;33252;48.122;11.538;2023-12-29T06:44:08;4.60;;;0.82;;
47519;SDS011;33252;48.122;11.538;2023-12-29T06:46:33;0.70;;;0.50;;
47519;SDS011;33252;48.122;11.538;2023-12-29T06:49:01;2.40;;;1.10;;
47519;SDS011;33252;48.122;11.538;2023-12-29T06:51:27;2.65;;;0.75;;
47519;SDS011;33252;48.122;11.538;2023-12-29T06:53:53;1.23;;;0.75;;
47519;SDS011;33252;48.122;11.538;2023-12-29T06:56:19;3.80;;;1.05;;
47519;SDS011;33252;48.122;11.538;2023-12-29T06:58:45;2.08;;;1.13;;
47519;SDS011;33252;48.122;11.538;2023-12-29T07:01:10;2.05;;;0.90;;
47519;SDS011;33252;48.122;11.538;2023-12-29T07:03:36;0.90;;;0.60;;
47519;SDS011;33252;48.122;11.538;2023-12-29T07:06:01;2.22;;;0.88;;
47519;SDS011;33252;48.122;11.538;2023-12-29T07:08:27;1.83;;;0.80;;
47519;SDS011;33252;48.122;11.538;2023-12-29T07:10:53;3.08;;;0.85;;
47519;SDS011;33252;48.122;11.538;2023-12-29T07:13:19;4.60;;;1.20;;
47519;SDS011;33252;48.122;11.538;2023-12-29T07:15:44;1.50;;;0.70;;
47519;SDS011;33252;48.122;11.538;2023-12-29T07:18:11;2.03;;;0.77;;
47519;SDS011;33252;48.122;11.538;2023-12-29T07:20:36;1.77;;;0.63;;
47519;SDS011;33252;48.122;11.538;2023-12-29T07:23:02;1.73;;;0.93;;
47519;SDS011;33252;48.122;11.538;2023-12-29T07:25:28;1.23;;;0.73;;
47519;SDS011;33252;48.122;11.538;2023-12-29T07:27:53;1.90;;;0.68;;
47519;SDS011;33252;48.122;11.538;2023-12-29T07:30:19;1.45;;;0.70;;
47519;SDS011;33252;48.122;11.538;2023-12-29T07:32:44;2.78;;;1.45;;
47519;SDS011;33252;48.122;11.538;2023-12-29T07:35:10;2.08;;;0.80;;
47519;SDS011;33252;48.122;11.538;2023-12-29T07:37:35;1.70;;;0.70;;
47519;SDS011;33252;48.122;11.538;2023-12-29T07:40:01;3.38;;;0.70;;
47519;SDS011;33252;48.122;11.538;2023-12-29T07:42:26;1.52;;;0.85;;
47519;SDS011;33252;48.122;11.538;2023-12-29T07:44:52;1.23;;;0.75;;
47519;SDS011;33252;48.122;11.538;2023-12-29T07:47:20;2.85;;;0.93;;
47519;SDS011;33252;48.122;11.538;2023-12-29T07:49:45;1.27;;;0.90;;
47519;SDS011;33252;48.122;11.538;2023-12-29T07:52:11;2.85;;;0.70;;
47519;SDS011;33252;48.122;11.538;2023-12-29T07:54:36;3.25;;;0.93;;
47519;SDS011;33252;48.122;11.538;2023-12-29T07:57:02;2.13;;;0.88;;
47519;SDS011;33252;48.122;11.538;2023-12-29T07:59:28;1.50;;;1.20;;
47519;SDS011;33252;48.122;11.538;2023-12-29T08:01:53;3.95;;;0.77;;
47519;SDS011;33252;48.122;11.538;2023-12-29T08:04:19;2.50;;;1.27;;
47519;SDS011;33252;48.122;11.538;2023-12-29T08:06:44;2.28;;;1.08;;
47519;SDS011;33252;48.122;11.538;2023-12-29T08:09:10;1.23;;;0.80;;
47519;SDS011;33252;48.122;11.538;2023-12-29T08:11:35;1.50;;;1.00;;
47519;SDS011;33252;48.122;11.538;2023-12-29T08:14:01;2.47;;;0.88;;
47519;SDS011;33252;48.122;11.538;2023-12-29T08:16:26;1.75;;;0.90;;
47519;SDS011;33252;48.122;11.538;2023-12-29T08:18:52;1.65;;;0.80;;
47519;SDS011;33252;48.122;11.538;2023-12-29T08:21:18;1.35;;;0.88;;
47519;SDS011;33252;48.122;11.538;2023-12-29T08:23:47;1.05;;;0.70;;
47519;SDS011;33252;48.122;11.538;2023-12-29T08:26:13;1.75;;;0.77;;
47519;SDS011;33252;48.122;11.538;2023-12-29T08:28:39;3.15;;;0.73;;
47519;SDS011;33252;48.122;11.538;2023-12-29T08:31:06;1.50;;;0.82;;
47519;SDS011;33252;48.122;11.538;2023-12-29T08:33:31;4.35;;;1.15;;
47519;SDS011;33252;48.122;11.538;2023-12-29T08:35:57;2.25;;;0.88;;
47519;SDS011;33252;48.122;11.538;2023-12-29T08:38:26;3.72;;;0.95;;
47519;SDS011;33252;48.122;11.538;2023-12-29T08:40:52;1.70;;;0.70;;
47519;SDS011;33252;48.122;11.538;2023-12-29T08:43:17;2.70;;;1.45;;
47519;SDS011;33252;48.122;11.538;2023-12-29T08:45:46;2.30;;;1.00;;
47519;SDS011;33252;48.122;11.538;2023-12-29T08:48:12;2.13;;;0.70;;
47519;SDS011;33252;48.122;11.538;2023-12-29T08:50:38;1.75;;;1.00;;
47519;SDS011;33252;48.122;11.538;2023-12-29T08:53:03;2.83;;;1.42;;
47519;SDS011;33252;48.122;11.538;2023-12-29T08:55:29;1.90;;;0.70;;
47519;SDS011;33252;48.122;11.538;2023-12-29T08:57:56;1.35;;;0.80;;
47519;SDS011;33252;48.122;11.538;2023-12-29T09:00:22;2.03;;;0.77;;
47519;SDS011;33252;48.122;11.538;2023-12-29T09:02:47;3.28;;;0.82;;
47519;SDS011;33252;48.122;11.538;2023-12-29T09:05:13;2.15;;;1.05;;
47519;SDS011;33252;48.122;11.538;2023-12-29T09:07:39;0.85;;;0.60;;
47519;SDS011;33252;48.122;11.538;2023-12-29T09:10:04;2.90;;;0.77;;
47519;SDS011;33252;48.122;11.538;2023-12-29T09:12:33;2.58;;;1.30;;
47519;SDS011;33252;48.122;11.538;2023-12-29T09:14:59;1.25;;;0.70;;
47519;SDS011;33252;48.122;11.538;2023-12-29T09:17:24;2.50;;;0.70;;
47519;SDS011;33252;48.122;11.538;2023-12-29T09:19:50;1.65;;;0.90;;
47519;SDS011;33252;48.122;11.538;2023-12-29T09:22:15;2.75;;;0.80;;
47519;SDS011;33252;48.122;11.538;2023-12-29T09:24:41;2.15;;;0.85;;
47519;SDS011;33252;48.122;11.538;2023-12-29T09:27:07;1.30;;;0.82;;
47519;SDS011;33252;48.122;11.538;2023-12-29T09:29:33;2.15;;;0.75;;
47519;SDS011;33252;48.122;11.538;2023-12-29T09:31:59;1.60;;;0.80;;
47519;SDS011;33252;48.122;11.538;2023-12-29T09:34:25;1.15;;;0.50;;
47519;SDS011;33252;48.122;11.538;2023-12-29T09:36:50;2.10;;;0.80;;
47519;SDS011;33252;48.122;11.538;2023-12-29T09:39:16;1.23;;;0.57;;
47519;SDS011;33252;48.122;11.538;2023-12-29T09:41:42;2.72;;;0.63;;
47519;SDS011;33252;48.122;11.538;2023-12-29T09:44:13;2.88;;;0.85;;
47519;SDS011;33252;48.122;11.538;2023-12-29T09:46:39;2.17;;;0.60;;
47519;SDS011;33252;48.122;11.538;2023-12-29T09:49:07;1.90;;;0.90;;
47519;SDS011;33252;48.122;11.538;2023-12-29T09:51:33;2.53;;;0.70;;
47519;SDS011;33252;48.122;11.538;2023-12-29T09:54:01;1.58;;;0.60;;
47519;SDS011;33252;48.122;11.538;2023-12-29T09:56:27;0.85;;;0.45;;
47519;SDS011;33252;48.122;11.538;2023-12-29T09:58:53;1.73;;;1.00;;
47519;SDS011;33252;48.122;11.538;2023-12-29T10:01:21;2.30;;;0.70;;
47519;SDS011;33252;48.122;11.538;2023-12-29T10:03:48;3.03;;;1.23;;
47519;SDS011;33252;48.122;11.538;2023-12-29T10:06:15;1.70;;;0.90;;
47519;SDS011;33252;48.122;11.538;2023-12-29T10:08:45;1.63;;;0.60;;
47519;SDS011;33252;48.122;11.538;2023-12-29T10:11:13;3.40;;;0.90;;
47519;SDS011;33252;48.122;11.538;2023-12-29T10:13:40;1.98;;;0.65;;
47519;SDS011;33252;48.122;11.538;2023-12-29T10:16:13;1.52;;;0.60;;
47519;SDS011;33252;48.122;11.538;2023-12-29T10:21:27;1.17;;;0.70;;
47519;SDS011;33252;48.122;11.538;2023-12-29T10:24:04;2.65;;;0.68;;
47519;SDS011;33252;48.122;11.538;2023-12-29T10:26:35;2.13;;;0.60;;
47519;SDS011;33252;48.122;11.538;2023-12-29T10:29:01;0.68;;;0.50;;
47519;SDS011;33252;48.122;11.538;2023-12-29T10:31:27;2.78;;;0.70;;
47519;SDS011;33252;48.122;11.538;2023-12-29T10:33:52;0.65;;;0.40;;
47519;SDS011;33252;48.122;11.538;2023-12-29T10:36:54;0.95;;;0.40;;
47519;SDS011;33252;48.122;11.538;2023-12-29T10:39:21;1.92;;;0.50;;
47519;SDS011;33252;48.122;11.538;2023-12-29T10:41:46;2.53;;;0.30;;
47519;SDS011;33252;48.122;11.538;2023-12-29T10:44:12;2.05;;;0.80;;
47519;SDS011;33252;48.122;11.538;2023-12-29T10:46:37;1.13;;;0.50;;
47519;SDS011;33252;48.122;11.538;2023-12-29T10:49:06;0.80;;;0.55;;
47519;SDS011;33252;48.122;11.538;2023-12-29T10:51:34;0.60;;;0.40;;
47519;SDS011;33252;48.122;11.538;2023-12-29T10:53:59;1.23;;;0.40;;
47519;SDS011;33252;48.122;11.538;2023-12-29T10:56:25;1.25;;;0.35;;
47519;SDS011;33252;48.122;11.538;2023-12-29T10:58:58;0.40;;;0.20;;
47519;SDS011;33252;48.122;11.538;2023-12-29T11:01:29;0.80;;;0.40;;
47519;SDS011;33252;48.122;11.538;2023-12-29T11:03:59;1.80;;;0.35;;
47519;SDS011;33252;48.122;11.538;2023-12-29T11:06:27;1.63;;;0.47;;
47519;SDS011;33252;48.122;11.538;2023-12-29T11:08:54;1.25;;;0.40;;
47519;SDS011;33252;48.122;11.538;2023-12-29T11:11:19;0.90;;;0.50;;
47519;SDS011;33252;48.122;11.538;2023-12-29T11:13:46;0.85;;;0.50;;
47519;SDS011;33252;48.122;11.538;2023-12-29T11:16:12;2.58;;;0.40;;
47519;SDS011;33252;48.122;11.538;2023-12-29T11:18:38;2.53;;;0.52;;
47519;SDS011;33252;48.122;11.538;2023-12-29T11:21:05;0.60;;;0.40;;
47519;SDS011;33252;48.122;11.538;2023-12-29T11:23:30;0.90;;;0.50;;
47519;SDS011;33252;48.122;11.538;2023-12-29T11:25:56;1.10;;;0.40;;
47519;SDS011;33252;48.122;11.538;2023-12-29T11:28:23;1.10;;;0.52;;
47519;SDS011;33252;48.122;11.538;2023-12-29T11:30:50;0.80;;;0.50;;
47519;SDS011;33252;48.122;11.538;2023-12-29T11:33:26;1.38;;;0.57;;
47519;SDS011;33252;48.122;11.538;2023-12-29T11:35:58;0.75;;;0.50;;
47519;SDS011;33252;48.122;11.538;2023-12-29T11:38:54;1.98;;;0.65;;
47519;SDS011;33252;48.122;11.538;2023-12-29T11:44:08;0.57;;;0.45;;
47519;SDS011;33252;48.122;11.538;2023-12-29T11:46:38;2.90;;;0.60;;
47519;SDS011;33252;48.122;11.538;2023-12-29T11:49:05;0.95;;;0.30;;
47519;SDS011;33252;48.122;11.538;2023-12-29T11:51:32;0.95;;;0.47;;
47519;SDS011;33252;48.122;11.538;2023-12-29T11:53:58;0.75;;;0.40;;
47519;SDS011;33252;48.122;11.538;2023-12-29T11:56:24;1.13;;;0.47;;
47519;SDS011;33252;48.122;11.538;2023-12-29T11:58:55;0.90;;;0.50;;
47519;SDS011;33252;48.122;11.538;2023-12-29T12:01:35;1.27;;;0.60;;
47519;SDS011;33252;48.122;11.538;2023-12-29T12:04:01;6.50;;;1.15;;
47519;SDS011;33252;48.122;11.538;2023-12-29T12:06:36;1.13;;;0.50;;
47519;SDS011;33252;48.122;11.538;2023-12-29T12:09:16;2.15;;;0.68;;
47519;SDS011;33252;48.122;11.538;2023-12-29T12:11:46;1.33;;;0.60;;
47519;SDS011;33252;48.122;11.538;2023-12-29T12:17:08;0.75;;;0.40;;
47519;SDS011;33252;48.122;11.538;2023-12-29T12:19:35;2.90;;;0.82;;
47519;SDS011;33252;48.122;11.538;2023-12-29T12:22:01;1.00;;;0.60;;
47519;SDS011;33252;48.122;11.538;2023-12-29T12:24:27;1.25;;;0.40;;
47519;SDS011;33252;48.122;11.538;2023-12-29T12:26:56;0.93;;;0.30;;
47519;SDS011;33252;48.122;11.538;2023-12-29T12:29:22;0.90;;;0.57;;
47519;SDS011;33252;48.122;11.538;2023-12-29T12:31:54;0.90;;;0.30;;
47519;SDS011;33252;48.122;11.538;2023-12-29T12:34:21;0.88;;;0.38;;
47519;SDS011;33252;48.122;11.538;2023-12-29T12:36:48;2.83;;;0.60;;
47519;SDS011;33252;48.122;11.538;2023-12-29T12:39:17;1.05;;;0.50;;
47519;SDS011;33252;48.122;11.538;2023-12-29T12:41:43;1.15;;;0.43;;
47519;SDS011;33252;48.122;11.538;2023-12-29T12:44:14;0.95;;;0.35;;
47519;SDS011;33252;48.122;11.538;2023-12-29T12:49:14;0.80;;;0.32;;
47519;SDS011;33252;48.122;11.538;2023-12-29T12:51:40;0.85;;;0.35;;
47519;SDS011;33252;48.122;11.538;2023-12-29T12:54:07;1.48;;;0.80;;
47519;SDS011;33252;48.122;11.538;2023-12-29T12:56:33;0.70;;;0.40;;
47519;SDS011;33252;48.122;11.538;2023-12-29T12:59:02;1.20;;;0.40;;
47519;SDS011;33252;48.122;11.538;2023-12-29T13:01:29;1.83;;;0.57;;
47519;SDS011;33252;48.122;11.538;2023-12-29T13:03:59;1.00;;;0.50;;
47519;SDS011;33252;48.122;11.538;2023-12-29T13:06:24;1.10;;;0.40;;
47519;SDS011;33252;48.122;11.538;2023-12-29T13:08:50;2.35;;;0.47;;
47519;SDS011;33252;48.122;11.538;2023-12-29T13:11:20;0.65;;;0.30;;
47519;SDS011;33252;48.122;11.538;2023-12-29T13:13:50;0.85;;;0.55;;
47519;SDS011;33252;48.122;11.538;2023-12-29T13:16:34;0.40;;;0.30;;
47519;SDS011;33252;48.122;11.538;2023-12-29T13:19:17;1.60;;;0.50;;
47519;SDS011;33252;48.122;11.538;2023-12-29T13:21:46;1.05;;;0.30;;
47519;SDS011;33252;48.122;11.538;2023-12-29T13:24:16;0.52;;;0.30;;
47519;SDS011;33252;48.122;11.538;2023-12-29T13:26:45;1.40;;;0.45;;
47519;SDS011;33252;48.122;11.538;2023-12-29T13:29:17;0.98;;;0.30;;
47519;SDS011;33252;48.122;11.538;2023-12-29T13:31:45;0.50;;;0.20;;
47519;SDS011;33252;48.122;11.538;2023-12-29T13:34:14;1.48;;;0.45;;
47519;SDS011;33252;48.122;11.538;2023-12-29T13:36:54;0.50;;;0.30;;
47519;SDS011;33252;48.122;11.538;2023-12-29T13:39:50;0.20;;;0.20;;
47519;SDS011;33252;48.122;11.538;2023-12-29T13:42:29;1.05;;;0.32;;
47519;SDS011;33252;48.122;11.538;2023-12-29T13:44:57;1.92;;;0.50;;
47519;SDS011;33252;48.122;11.538;2023-12-29T13:47:24;0.47;;;0.22;;
47519;SDS011;33252;48.122;11.538;2023-12-29T13:49:50;0.95;;;0.20;;
47519;SDS011;33252;48.122;11.538;2023-12-29T13:52:16;0.77;;;0.30;;
47519;SDS011;33252;48.122;11.538;2023-12-29T13:54:43;0.63;;;0.38;;
47519;SDS011;33252;48.122;11.538;2023-12-29T13:57:09;1.10;;;0.38;;
47519;SDS011;33252;48.122;11.538;2023-12-29T13:59:35;1.02;;;0.30;;
47519;SDS011;33252;48.122;11.538;2023-12-29T14:04:51;2.20;;;0.50;;
47519;SDS011;33252;48.122;11.538;2023-12-29T14:07:34;5.13;;;0.90;;
47519;SDS011;33252;48.122;11.538;2023-12-29T14:10:00;2.53;;;1.23;;
47519;SDS011;33252;48.122;11.538;2023-12-29T14:12:26;0.90;;;0.30;;
47519;SDS011;33252;48.122;11.538;2023-12-29T14:14:51;1.67;;;0.30;;
47519;SDS011;33252;48.122;11.538;2023-12-29T14:17:21;1.50;;;0.30;;
47519;SDS011;33252;48.122;11.538;2023-12-29T14:19:46;1.58;;;0.68;;
47519;SDS011;33252;48.122;11.538;2023-12-29T14:22:20;0.90;;;0.47;;
47519;SDS011;33252;48.122;11.538;2023-12-29T14:24:58;1.02;;;0.40;;
47519;SDS011;33252;48.122;11.538;2023-12-29T14:27:26;1.40;;;0.68;;
47519;SDS011;33252;48.122;11.538;2023-12-29T14:29:52;0.98;;;0.40;;
47519;SDS011;33252;48.122;11.538;2023-12-29T14:32:17;1.35;;;0.50;;
47519;SDS011;33252;48.122;11.538;2023-12-29T14:34:43;0.98;;;0.40;;
47519;SDS011;33252;48.122;11.538;2023-12-29T14:37:11;1.25;;;0.50;;
47519;SDS011;33252;48.122;11.538;2023-12-29T14:39:36;0.60;;;0.35;;
47519;SDS011;33252;48.122;11.538;2023-12-29T14:42:02;0.85;;;0.45;;
47519;SDS011;33252;48.122;11.538;2023-12-29T14:44:27;1.52;;;0.25;;
47519;SDS011;33252;48.122;11.538;2023-12-29T14:46:53;1.52;;;0.50;;
47519;SDS011;33252;48.122;11.538;2023-12-29T14:49:19;1.02;;;0.40;;
47519;SDS011;33252;48.122;11.538;2023-12-29T14:51:45;1.27;;;0.40;;
47519;SDS011;33252;48.122;11.538;2023-12-29T14:54:10;1.00;;;0.32;;
47519;SDS011;33252;48.122;11.538;2023-12-29T14:56:36;1.52;;;0.40;;